Time;durP1;ratioP1;P1;durP2;ratioP2;P2;SDS_P1;SDS_P2;PMS_P1;PMS_P2;Temp;Humidity;BMP_temperature;BMP_pressure;BME280_temperature;BME280_humidity;BME280_pressure;Samples;Min_cycle;Max_cycle;Signal;HPM_P1;HPM_P2
2022/05/13 00:01:29;;;;;;;1.07;0.80;;;;;;;;;;5030114;28;20279;-62
2022/05/13 00:04:15;;;;;;;1.50;0.87;;;;;;;;;;5031886;28;20240;-60
2022/05/13 00:07:03;;;;;;;1.40;0.83;;;;;;;;;;5034543;28;20210;-62
2022/05/13 00:10:00;;;;;;;1.20;1.10;;;;;;;;;;5031985;28;20319;-62
2022/05/13 00:12:47;;;;;;;0.80;0.80;;;;;;;;;;5028610;28;20681;-62
2022/05/13 00:15:34;;;;;;;0.80;0.80;;;;;;;;;;5030476;28;20790;-62
2022/05/13 00:18:21;;;;;;;0.73;0.60;;;;;;;;;;5030031;28;20868;-62
2022/05/13 00:21:09;;;;;;;1.03;0.93;;;;;;;;;;5030456;28;20229;-60
2022/05/13 00:23:56;;;;;;;1.10;1.00;;;;;;;;;;5032214;28;20610;-60
2022/05/13 00:26:44;;;;;;;1.00;0.90;;;;;;;;;;5031623;28;20383;-62
2022/05/13 00:29:31;;;;;;;1.20;0.90;;;;;;;;;;5028227;28;20299;-62
2022/05/13 00:32:19;;;;;;;1.37;1.00;;;;;;;;;;5030158;28;20305;-61
2022/05/13 00:35:07;;;;;;;1.30;0.90;;;;;;;;;;5031273;28;20300;-62
2022/05/13 00:37:54;;;;;;;0.90;0.70;;;;;;;;;;5032101;28;20220;-61
2022/05/13 00:40:44;;;;;;;1.57;0.90;;;;;;;;;;5030039;28;20204;-62
2022/05/13 00:43:47;;;;;;;1.20;1.00;;;;;;;;;;5039163;28;20213;-61
2022/05/13 00:46:34;;;;;;;2.73;1.30;;;;;;;;;;5030624;28;20209;-62
2022/05/13 00:49:21;;;;;;;1.30;0.80;;;;;;;;;;5033119;28;20625;-62
2022/05/13 00:52:10;;;;;;;0.93;0.63;;;;;;;;;;5033106;28;20225;-62
2022/05/13 00:54:57;;;;;;;1.77;0.90;;;;;;;;;;5032060;28;20216;-62
2022/05/13 00:57:44;;;;;;;1.27;1.00;;;;;;;;;;5030035;28;20279;-62
2022/05/13 01:00:34;;;;;;;2.90;1.00;;;;;;;;;;5031685;28;20995;-57
2022/05/13 01:03:21;;;;;;;0.80;0.80;;;;;;;;;;5029430;28;20414;-61
2022/05/13 01:06:13;;;;;;;1.53;0.90;;;;;;;;;;5022701;28;20698;-60
2022/05/13 01:09:01;;;;;;;1.33;0.80;;;;;;;;;;5021907;28;20276;-61
2022/05/13 01:11:52;;;;;;;1.20;0.70;;;;;;;;;;5022897;28;20252;-61
2022/05/13 01:14:43;;;;;;;1.60;0.83;;;;;;;;;;5022583;28;20200;-62
2022/05/13 01:20:46;;;;;;;1.50;0.87;;;;;;;;;;5020362;28;20209;-61
2022/05/13 01:23:40;;;;;;;1.10;1.00;;;;;;;;;;5023900;28;20463;-61
2022/05/13 01:26:29;;;;;;;1.77;1.10;;;;;;;;;;5021722;28;20212;-62
2022/05/13 01:29:16;;;;;;;1.10;0.70;;;;;;;;;;5024374;28;20209;-62
2022/05/13 01:32:03;;;;;;;1.67;0.90;;;;;;;;;;5031904;28;20315;-62
2022/05/13 01:34:50;;;;;;;1.03;0.70;;;;;;;;;;5027731;28;20322;-62
2022/05/13 01:37:38;;;;;;;2.60;0.97;;;;;;;;;;5028930;28;20257;-61
2022/05/13 01:40:26;;;;;;;1.23;0.80;;;;;;;;;;5029089;28;20292;-62
2022/05/13 01:43:13;;;;;;;2.17;1.10;;;;;;;;;;5028493;28;20280;-62
2022/05/13 01:46:00;;;;;;;1.90;0.90;;;;;;;;;;5027863;28;20274;-62
2022/05/13 01:48:48;;;;;;;1.33;0.73;;;;;;;;;;5028753;28;20772;-62
2022/05/13 01:51:35;;;;;;;1.03;0.70;;;;;;;;;;5030780;28;20363;-62
2022/05/13 01:54:22;;;;;;;1.23;0.83;;;;;;;;;;5029292;28;20282;-62
2022/05/13 01:57:10;;;;;;;1.17;0.90;;;;;;;;;;5034630;28;20205;-62
2022/05/13 01:59:57;;;;;;;1.57;1.17;;;;;;;;;;5029326;28;20750;-60
2022/05/13 02:05:48;;;;;;;1.33;0.90;;;;;;;;;;5029397;28;20292;-60
2022/05/13 02:08:36;;;;;;;2.13;1.13;;;;;;;;;;5030200;28;20275;-62
2022/05/13 02:11:25;;;;;;;0.97;0.90;;;;;;;;;;5028460;28;20311;-62
2022/05/13 02:14:13;;;;;;;3.13;1.07;;;;;;;;;;5028880;28;20218;-62
2022/05/13 02:17:00;;;;;;;1.13;0.90;;;;;;;;;;5026608;28;20757;-62
2022/05/13 02:19:47;;;;;;;1.30;0.93;;;;;;;;;;5028445;28;20213;-62
2022/05/13 02:22:34;;;;;;;1.10;0.80;;;;;;;;;;5028885;28;20283;-62
2022/05/13 02:25:21;;;;;;;1.40;0.77;;;;;;;;;;5032096;28;20328;-62
2022/05/13 02:28:08;;;;;;;1.43;1.10;;;;;;;;;;5028766;28;20209;-62
2022/05/13 02:30:57;;;;;;;1.03;0.83;;;;;;;;;;5028128;28;20314;-62
2022/05/13 02:33:44;;;;;;;0.83;0.80;;;;;;;;;;5029422;28;20311;-61
2022/05/13 02:36:32;;;;;;;1.53;1.00;;;;;;;;;;5027184;28;20244;-62
2022/05/13 02:39:19;;;;;;;1.07;0.90;;;;;;;;;;5027253;28;20207;-62
2022/05/13 02:42:06;;;;;;;1.97;0.97;;;;;;;;;;5028880;28;20283;-62
2022/05/13 02:44:53;;;;;;;1.83;0.67;;;;;;;;;;5027202;28;20260;-61
2022/05/13 02:47:42;;;;;;;0.83;0.73;;;;;;;;;;5029178;28;20613;-62
2022/05/13 02:50:29;;;;;;;1.57;0.90;;;;;;;;;;5018369;28;20329;-62
2022/05/13 02:53:16;;;;;;;1.13;1.00;;;;;;;;;;5020572;28;20284;-61
2022/05/13 02:56:05;;;;;;;1.47;1.37;;;;;;;;;;5015472;28;20721;-62
2022/05/13 02:58:52;;;;;;;1.30;0.80;;;;;;;;;;5012461;28;20244;-62
2022/05/13 03:01:39;;;;;;;1.53;0.90;;;;;;;;;;5018183;28;20703;-61
2022/05/13 03:04:28;;;;;;;1.23;1.10;;;;;;;;;;5016293;28;20746;-62
2022/05/13 03:07:15;;;;;;;1.83;1.30;;;;;;;;;;5018796;28;20217;-62
2022/05/13 03:10:01;;;;;;;1.57;1.10;;;;;;;;;;5023528;28;20264;-61
2022/05/13 03:12:48;;;;;;;1.87;0.93;;;;;;;;;;5017439;28;20246;-62
2022/05/13 03:15:36;;;;;;;1.37;0.73;;;;;;;;;;5024351;28;20563;-62
2022/05/13 03:18:22;;;;;;;1.27;0.87;;;;;;;;;;5011249;28;20541;-61
2022/05/13 03:21:11;;;;;;;0.97;0.97;;;;;;;;;;5023005;28;20231;-62
2022/05/13 03:23:59;;;;;;;2.07;1.20;;;;;;;;;;5013816;28;20215;-62
2022/05/13 03:26:45;;;;;;;1.03;0.80;;;;;;;;;;5017613;28;20224;-59
2022/05/13 03:29:32;;;;;;;1.03;0.87;;;;;;;;;;5017552;28;20285;-62
2022/05/13 03:32:19;;;;;;;1.77;0.93;;;;;;;;;;5013089;28;20640;-62
2022/05/13 03:35:09;;;;;;;1.73;0.80;;;;;;;;;;5013285;28;20284;-62
2022/05/13 03:37:57;;;;;;;1.27;0.90;;;;;;;;;;5015105;28;20711;-62
2022/05/13 03:40:45;;;;;;;1.23;0.93;;;;;;;;;;5020712;28;20680;-62
2022/05/13 03:43:32;;;;;;;1.53;1.03;;;;;;;;;;5019422;28;20226;-62
2022/05/13 03:46:19;;;;;;;1.70;0.90;;;;;;;;;;5018933;28;20201;-62
2022/05/13 03:49:06;;;;;;;1.23;1.00;;;;;;;;;;5020632;28;20289;-62
2022/05/13 03:51:53;;;;;;;1.33;0.87;;;;;;;;;;5033460;28;20227;-62
2022/05/13 03:54:42;;;;;;;1.77;1.03;;;;;;;;;;5038572;28;20327;-62
2022/05/13 03:57:29;;;;;;;0.90;0.80;;;;;;;;;;5034163;28;20289;-62
2022/05/13 04:00:16;;;;;;;1.57;0.80;;;;;;;;;;5034337;28;20224;-61
2022/05/13 04:03:03;;;;;;;3.07;1.10;;;;;;;;;;5031219;28;20574;-62
2022/05/13 04:08:57;;;;;;;1.67;0.80;;;;;;;;;;5032250;28;20207;-61
2022/05/13 04:16:04;;;;;;;1.13;1.00;;;;;;;;;;5032853;28;20238;-62
2022/05/13 04:17:57;;;;;;;2.17;1.27;;;;;;;;;;5031321;28;20288;-62
2022/05/13 04:20:45;;;;;;;0.90;0.87;;;;;;;;;;5030824;28;20626;-61
2022/05/13 04:23:33;;;;;;;1.67;0.77;;;;;;;;;;5030740;28;20228;-61
2022/05/13 04:26:21;;;;;;;1.37;0.80;;;;;;;;;;5029905;28;20815;-62
2022/05/13 04:29:09;;;;;;;0.97;0.70;;;;;;;;;;5031709;28;20243;-62
2022/05/13 04:31:56;;;;;;;1.07;1.00;;;;;;;;;;5032515;28;20395;-61
2022/05/13 04:34:43;;;;;;;1.10;0.97;;;;;;;;;;5030750;28;20209;-62
2022/05/13 04:37:30;;;;;;;0.80;0.80;;;;;;;;;;5035894;28;20301;-62
2022/05/13 04:40:17;;;;;;;1.00;0.60;;;;;;;;;;5034058;28;20239;-61
2022/05/13 04:43:03;;;;;;;0.87;0.70;;;;;;;;;;5029045;28;20287;-62
2022/05/13 04:45:51;;;;;;;2.40;0.70;;;;;;;;;;5031427;28;20239;-60
2022/05/13 04:48:38;;;;;;;1.67;1.00;;;;;;;;;;5033506;28;20296;-61
2022/05/13 04:51:26;;;;;;;2.57;0.90;;;;;;;;;;5027130;28;20247;-62
2022/05/13 04:54:13;;;;;;;0.90;0.73;;;;;;;;;;5030780;28;20231;-62
2022/05/13 04:57:00;;;;;;;1.33;0.97;;;;;;;;;;5030454;28;20558;-61
2022/05/13 04:59:47;;;;;;;1.20;0.93;;;;;;;;;;5030999;28;20242;-62
2022/05/13 05:02:35;;;;;;;1.77;1.10;;;;;;;;;;5029029;28;20299;-62
2022/05/13 05:05:22;;;;;;;1.50;0.93;;;;;;;;;;5031539;28;20331;-62
2022/05/13 05:08:09;;;;;;;1.10;0.87;;;;;;;;;;5030996;28;20675;-62
2022/05/13 05:10:57;;;;;;;1.53;0.70;;;;;;;;;;5030389;28;20400;-62
2022/05/13 05:13:46;;;;;;;1.17;0.93;;;;;;;;;;5032553;28;20286;-61
2022/05/13 05:16:33;;;;;;;0.97;0.70;;;;;;;;;;5024867;28;20299;-61
2022/05/13 05:19:22;;;;;;;1.07;0.87;;;;;;;;;;5033329;28;20298;-62
2022/05/13 05:22:08;;;;;;;1.83;1.03;;;;;;;;;;5028956;28;20245;-62
2022/05/13 05:24:55;;;;;;;1.40;0.97;;;;;;;;;;5029327;28;20294;-62
2022/05/13 05:27:42;;;;;;;1.43;1.20;;;;;;;;;;5037778;28;20232;-62
2022/05/13 05:30:29;;;;;;;1.20;1.10;;;;;;;;;;5034266;28;20244;-62
2022/05/13 05:33:16;;;;;;;2.33;1.00;;;;;;;;;;5029659;28;20263;-61
2022/05/13 05:36:05;;;;;;;1.33;1.23;;;;;;;;;;5031237;28;20750;-62
2022/05/13 05:38:52;;;;;;;1.07;0.90;;;;;;;;;;5028601;28;20709;-62
2022/05/13 05:41:39;;;;;;;1.07;0.77;;;;;;;;;;5031970;28;20648;-62
2022/05/13 05:44:27;;;;;;;1.47;0.90;;;;;;;;;;5030855;28;20339;-61
2022/05/13 05:47:14;;;;;;;1.10;1.00;;;;;;;;;;5039259;28;20209;-62
2022/05/13 05:50:01;;;;;;;2.00;1.03;;;;;;;;;;5032902;28;20249;-61
2022/05/13 05:52:49;;;;;;;1.53;1.03;;;;;;;;;;5028423;28;20327;-62
2022/05/13 05:58:41;;;;;;;0.80;0.70;;;;;;;;;;5029668;28;20613;-62
2022/05/13 06:01:28;;;;;;;1.40;1.00;;;;;;;;;;5030185;28;20196;-62
2022/05/13 06:04:15;;;;;;;2.03;0.80;;;;;;;;;;5028270;28;20728;-62
2022/05/13 06:07:02;;;;;;;1.60;1.17;;;;;;;;;;5031858;28;20293;-62
2022/05/13 06:09:51;;;;;;;1.30;1.00;;;;;;;;;;5031210;28;20340;-62
2022/05/13 06:12:38;;;;;;;1.20;0.80;;;;;;;;;;5034427;28;20313;-61
2022/05/13 06:15:25;;;;;;;1.03;0.90;;;;;;;;;;5030173;28;20210;-62
2022/05/13 06:18:12;;;;;;;1.60;1.10;;;;;;;;;;5030491;28;20210;-62
2022/05/13 06:21:00;;;;;;;0.93;0.93;;;;;;;;;;5029438;28;20202;-61
2022/05/13 06:23:47;;;;;;;2.20;1.13;;;;;;;;;;5028889;28;20225;-62
2022/05/13 06:26:35;;;;;;;1.00;0.80;;;;;;;;;;5035607;28;20301;-62
2022/05/13 06:29:23;;;;;;;1.60;1.00;;;;;;;;;;5029933;28;20758;-62
2022/05/13 06:32:10;;;;;;;2.10;1.10;;;;;;;;;;5030128;28;20231;-61
2022/05/13 06:34:57;;;;;;;0.97;0.93;;;;;;;;;;5028369;28;20227;-62
2022/05/13 06:37:44;;;;;;;2.03;0.90;;;;;;;;;;5031384;28;20747;-62
2022/05/13 06:40:33;;;;;;;1.57;1.00;;;;;;;;;;5031034;28;20259;-61
2022/05/13 06:43:22;;;;;;;1.40;1.03;;;;;;;;;;5027462;28;20208;-62
2022/05/13 06:46:09;;;;;;;1.80;0.90;;;;;;;;;;5028088;28;20633;-62
2022/05/13 06:48:58;;;;;;;1.20;1.03;;;;;;;;;;5028569;28;20247;-62
2022/05/13 06:51:44;;;;;;;1.60;1.10;;;;;;;;;;5029195;28;20258;-62
2022/05/13 06:54:31;;;;;;;1.27;1.00;;;;;;;;;;5029718;28;20225;-62
2022/05/13 06:57:18;;;;;;;1.30;1.10;;;;;;;;;;5031460;28;20235;-61
2022/05/13 07:00:10;;;;;;;1.27;0.87;;;;;;;;;;5033143;28;20846;-62
2022/05/13 07:02:57;;;;;;;1.83;1.20;;;;;;;;;;5027797;28;20227;-61
2022/05/13 07:05:45;;;;;;;2.70;1.17;;;;;;;;;;5028254;28;20628;-61
2022/05/13 07:08:32;;;;;;;1.17;0.87;;;;;;;;;;5034901;28;20216;-61
2022/05/13 07:11:20;;;;;;;1.30;1.00;;;;;;;;;;5027460;28;20702;-61
2022/05/13 07:14:07;;;;;;;1.93;1.00;;;;;;;;;;5029505;28;20218;-62
2022/05/13 07:16:55;;;;;;;1.10;0.97;;;;;;;;;;5035266;28;20267;-62
2022/05/13 07:19:42;;;;;;;1.00;0.87;;;;;;;;;;5035106;28;20206;-62
2022/05/13 07:22:29;;;;;;;2.00;1.00;;;;;;;;;;5034036;28;20255;-62
2022/05/13 07:25:16;;;;;;;1.10;1.00;;;;;;;;;;5037072;28;20689;-62
2022/05/13 07:28:04;;;;;;;1.17;0.90;;;;;;;;;;5033885;28;20300;-62
2022/05/13 07:30:51;;;;;;;1.43;0.90;;;;;;;;;;5034456;28;20285;-61
2022/05/13 07:33:39;;;;;;;2.07;1.40;;;;;;;;;;5034847;28;20222;-61
2022/05/13 07:36:26;;;;;;;1.60;1.23;;;;;;;;;;5033391;28;20251;-61
2022/05/13 07:42:18;;;;;;;1.03;0.93;;;;;;;;;;5036835;28;20240;-61
2022/05/13 07:45:06;;;;;;;1.33;1.10;;;;;;;;;;5034564;28;20297;-62
2022/05/13 07:47:53;;;;;;;1.70;1.23;;;;;;;;;;5033347;28;20214;-62
2022/05/13 07:50:42;;;;;;;1.87;0.90;;;;;;;;;;5038185;28;20241;-62
2022/05/13 07:53:29;;;;;;;1.40;0.90;;;;;;;;;;5042728;28;20219;-62
2022/05/13 07:56:16;;;;;;;1.37;1.10;;;;;;;;;;5038976;28;20678;-62
2022/05/13 07:59:03;;;;;;;1.47;1.00;;;;;;;;;;5035313;28;20268;-62
2022/05/13 08:01:50;;;;;;;2.27;0.97;;;;;;;;;;5033771;28;20262;-61
2022/05/13 08:04:37;;;;;;;0.97;0.80;;;;;;;;;;5035861;28;20259;-62
2022/05/13 08:07:25;;;;;;;2.00;1.13;;;;;;;;;;5034434;28;20292;-62
2022/05/13 08:10:13;;;;;;;1.53;0.90;;;;;;;;;;5033675;28;20250;-60
2022/05/13 08:13:00;;;;;;;1.53;1.00;;;;;;;;;;5037324;28;20224;-61
2022/05/13 08:15:47;;;;;;;1.23;1.03;;;;;;;;;;5033538;28;20354;-62
2022/05/13 08:18:35;;;;;;;1.17;1.10;;;;;;;;;;5038054;28;20233;-62
2022/05/13 08:21:22;;;;;;;2.37;1.10;;;;;;;;;;5041399;28;20236;-61
2022/05/13 08:24:10;;;;;;;1.40;0.87;;;;;;;;;;5039055;28;20220;-61
2022/05/13 08:26:57;;;;;;;1.70;1.00;;;;;;;;;;5032464;28;20289;-62
2022/05/13 08:29:44;;;;;;;1.00;0.90;;;;;;;;;;5031067;28;20356;-62
2022/05/13 08:32:31;;;;;;;1.13;1.03;;;;;;;;;;5041644;28;20264;-62
2022/05/13 08:35:18;;;;;;;0.83;0.83;;;;;;;;;;5033643;28;20562;-62
2022/05/13 08:38:06;;;;;;;1.33;0.93;;;;;;;;;;5031269;28;20212;-62
2022/05/13 08:41:09;;;;;;;1.50;0.83;;;;;;;;;;5031012;28;20210;-62
2022/05/13 08:44:01;;;;;;;1.47;1.00;;;;;;;;;;5031221;28;20274;-65
2022/05/13 08:47:04;;;;;;;2.10;1.23;;;;;;;;;;5031160;28;20203;-62
2022/05/13 08:49:54;;;;;;;0.87;0.80;;;;;;;;;;5030342;28;20240;-62
2022/05/13 08:55:58;;;;;;;1.73;0.90;;;;;;;;;;5030779;28;20213;-62
2022/05/13 08:58:54;;;;;;;1.90;1.00;;;;;;;;;;5030254;28;20258;-62
2022/05/13 09:01:46;;;;;;;1.67;1.10;;;;;;;;;;5032902;28;20245;-61
2022/05/13 09:04:40;;;;;;;1.37;0.80;;;;;;;;;;5029963;28;20298;-62
2022/05/13 09:07:28;;;;;;;1.60;0.80;;;;;;;;;;5030510;28;20210;-62
2022/05/13 09:10:15;;;;;;;1.33;0.90;;;;;;;;;;5031184;28;20281;-61
2022/05/13 09:13:09;;;;;;;1.80;1.10;;;;;;;;;;5038184;28;20699;-62
2022/05/13 09:15:58;;;;;;;1.03;0.70;;;;;;;;;;5030650;28;20720;-62
2022/05/13 09:18:56;;;;;;;1.87;0.97;;;;;;;;;;5033760;28;20702;-62
2022/05/13 09:21:44;;;;;;;1.73;1.10;;;;;;;;;;5030159;28;20296;-61
2022/05/13 09:24:31;;;;;;;1.97;1.10;;;;;;;;;;5032732;28;20571;-62
2022/05/13 09:27:18;;;;;;;1.43;1.00;;;;;;;;;;5028891;28;20335;-62
2022/05/13 09:30:05;;;;;;;1.80;1.23;;;;;;;;;;5035624;28;20342;-62
2022/05/13 09:32:53;;;;;;;1.97;1.03;;;;;;;;;;5033292;28;20230;-62
2022/05/13 09:35:42;;;;;;;0.70;0.70;;;;;;;;;;5033266;28;20211;-62
2022/05/13 09:38:31;;;;;;;1.33;1.00;;;;;;;;;;5030030;28;20215;-62
2022/05/13 09:41:26;;;;;;;1.07;0.80;;;;;;;;;;5029923;28;20219;-61
2022/05/13 09:44:18;;;;;;;1.00;0.90;;;;;;;;;;5038864;28;20205;-61
2022/05/13 09:47:11;;;;;;;1.00;0.90;;;;;;;;;;5029161;28;20215;-62
2022/05/13 09:50:01;;;;;;;0.70;0.70;;;;;;;;;;5031842;28;20240;-61
2022/05/13 09:52:51;;;;;;;1.87;0.90;;;;;;;;;;5031351;28;20258;-62
2022/05/13 09:55:40;;;;;;;1.47;1.00;;;;;;;;;;5033430;28;20210;-62
2022/05/13 09:58:29;;;;;;;1.20;1.10;;;;;;;;;;5031309;28;20335;-62
2022/05/13 10:01:22;;;;;;;2.53;0.97;;;;;;;;;;5031004;28;20678;-62
2022/05/13 10:04:12;;;;;;;1.43;1.00;;;;;;;;;;5035628;28;20251;-61
2022/05/13 10:07:05;;;;;;;1.23;1.00;;;;;;;;;;5031802;28;20319;-61
2022/05/13 10:16:13;;;;;;;0.83;0.80;;;;;;;;;;5032403;28;20205;-62
2022/05/13 10:19:05;;;;;;;1.73;1.10;;;;;;;;;;5031979;28;20337;-62
2022/05/13 10:22:02;;;;;;;2.17;1.00;;;;;;;;;;5029374;28;20619;-62
2022/05/13 10:24:56;;;;;;;1.73;1.03;;;;;;;;;;5038814;28;20628;-61
2022/05/13 10:27:47;;;;;;;0.87;0.70;;;;;;;;;;5033637;28;20210;-62
2022/05/13 10:30:42;;;;;;;1.67;0.87;;;;;;;;;;5029712;28;20298;-61
2022/05/13 10:33:36;;;;;;;1.47;1.10;;;;;;;;;;5032521;28;20317;-62
2022/05/13 10:36:31;;;;;;;1.83;1.10;;;;;;;;;;5033392;28;20263;-62
2022/05/13 10:39:22;;;;;;;1.17;1.07;;;;;;;;;;5028621;28;20652;-62
2022/05/13 10:42:18;;;;;;;1.10;1.00;;;;;;;;;;5030993;28;20573;-62
2022/05/13 10:45:11;;;;;;;1.13;0.90;;;;;;;;;;5032460;28;20294;-62
2022/05/13 10:48:11;;;;;;;1.00;0.90;;;;;;;;;;5029772;28;20682;-62
2022/05/13 10:51:08;;;;;;;1.30;0.70;;;;;;;;;;5028079;28;20278;-62
2022/05/13 10:54:21;;;;;;;2.27;0.70;;;;;;;;;;5028956;28;20230;-62
2022/05/13 10:57:24;;;;;;;1.73;0.80;;;;;;;;;;5030739;28;20288;-62
2022/05/13 11:00:14;;;;;;;0.83;0.83;;;;;;;;;;5030999;28;20235;-61
2022/05/13 11:03:25;;;;;;;1.40;0.93;;;;;;;;;;5027490;28;20292;-61
2022/05/13 11:06:25;;;;;;;1.60;0.80;;;;;;;;;;5030181;28;20203;-61
2022/05/13 11:09:24;;;;;;;1.13;0.90;;;;;;;;;;5031334;28;20295;-61
2022/05/13 11:12:20;;;;;;;0.80;0.70;;;;;;;;;;5032398;28;20630;-61
2022/05/13 11:15:19;;;;;;;1.27;1.07;;;;;;;;;;5028909;28;20216;-62
2022/05/13 11:18:17;;;;;;;0.60;0.60;;;;;;;;;;5030079;28;20233;-62
2022/05/13 11:21:14;;;;;;;1.63;0.90;;;;;;;;;;5028020;28;20289;-61
2022/05/13 11:27:20;;;;;;;1.10;1.00;;;;;;;;;;5026922;28;20203;-60
2022/05/13 11:30:09;;;;;;;0.80;0.70;;;;;;;;;;5028507;28;20298;-62
2022/05/13 11:33:01;;;;;;;1.47;0.90;;;;;;;;;;5028493;28;20344;-62
2022/05/13 11:36:03;;;;;;;1.33;0.93;;;;;;;;;;5033536;28;20240;-62
2022/05/13 11:39:05;;;;;;;1.63;1.10;;;;;;;;;;5029283;28;20212;-61
2022/05/13 11:42:00;;;;;;;1.07;0.87;;;;;;;;;;5029832;28;20301;-62
2022/05/13 11:45:01;;;;;;;1.13;1.00;;;;;;;;;;5030361;28;20735;-61
2022/05/13 11:47:57;;;;;;;1.10;1.10;;;;;;;;;;5026423;28;20250;-61
2022/05/13 11:50:44;;;;;;;1.00;1.00;;;;;;;;;;5029872;28;20275;-60
2022/05/13 11:53:50;;;;;;;1.20;1.10;;;;;;;;;;5028588;28;20588;-62
2022/05/13 11:56:38;;;;;;;1.50;1.00;;;;;;;;;;5032836;28;20207;-62
2022/05/13 11:59:45;;;;;;;1.07;0.97;;;;;;;;;;5027430;28;20210;-61
2022/05/13 12:02:51;;;;;;;1.50;1.10;;;;;;;;;;5028895;28;20198;-61
2022/05/13 12:05:55;;;;;;;3.53;1.20;;;;;;;;;;5034100;28;20647;-61
2022/05/13 12:08:46;;;;;;;1.27;1.07;;;;;;;;;;5035064;28;20297;-62
2022/05/13 12:11:46;;;;;;;0.90;0.90;;;;;;;;;;5036916;28;20212;-62
2022/05/13 12:14:43;;;;;;;1.20;1.10;;;;;;;;;;5031917;28;20238;-61
2022/05/13 12:17:41;;;;;;;0.87;0.87;;;;;;;;;;5038774;28;20218;-62
2022/05/13 12:20:39;;;;;;;1.37;1.30;;;;;;;;;;5034694;28;20696;-62
2022/05/13 12:23:30;;;;;;;2.90;1.50;;;;;;;;;;5030157;28;20289;-61
2022/05/13 12:26:22;;;;;;;1.43;1.13;;;;;;;;;;5030894;28;20294;-61
2022/05/13 12:29:17;;;;;;;1.40;1.10;;;;;;;;;;5032132;28;20292;-61
2022/05/13 12:32:18;;;;;;;1.30;1.20;;;;;;;;;;5034567;28;20210;-62
2022/05/13 12:38:18;;;;;;;2.33;1.30;;;;;;;;;;5036501;28;20200;-61
2022/05/13 12:41:18;;;;;;;1.50;1.23;;;;;;;;;;5034237;28;20768;-62
2022/05/13 12:44:09;;;;;;;1.53;1.20;;;;;;;;;;5033348;28;20276;-61
2022/05/13 12:47:19;;;;;;;1.83;1.20;;;;;;;;;;5034501;28;20212;-62
2022/05/13 12:50:26;;;;;;;1.40;1.10;;;;;;;;;;5030186;28;20335;-61
2022/05/13 12:53:42;;;;;;;1.67;0.97;;;;;;;;;;5032063;28;20710;-61
2022/05/13 12:56:32;;;;;;;1.63;1.10;;;;;;;;;;5031883;28;20283;-61
2022/05/13 12:59:24;;;;;;;1.60;1.23;;;;;;;;;;5030516;28;20287;-62
2022/05/13 13:02:11;;;;;;;1.27;1.13;;;;;;;;;;5034929;28;20205;-62
2022/05/13 13:05:01;;;;;;;1.30;1.10;;;;;;;;;;5033621;28;20244;-61
2022/05/13 13:07:48;;;;;;;1.63;1.30;;;;;;;;;;5030241;28;20212;-61
2022/05/13 13:10:36;;;;;;;1.17;1.17;;;;;;;;;;5031790;28;20211;-62
2022/05/13 13:13:31;;;;;;;2.03;1.40;;;;;;;;;;5026547;28;20334;-62
2022/05/13 13:16:26;;;;;;;0.93;0.93;;;;;;;;;;5035966;28;20221;-61
2022/05/13 13:19:17;;;;;;;1.57;1.10;;;;;;;;;;5031298;28;20240;-62
2022/05/13 13:22:08;;;;;;;1.20;1.10;;;;;;;;;;5032094;28;20638;-62
2022/05/13 13:24:55;;;;;;;1.43;1.30;;;;;;;;;;5033131;28;20293;-62
2022/05/13 13:27:44;;;;;;;1.47;1.20;;;;;;;;;;5039498;28;20259;-61
2022/05/13 13:30:32;;;;;;;2.30;1.60;;;;;;;;;;5033291;28;20233;-62
2022/05/13 13:33:20;;;;;;;1.10;1.00;;;;;;;;;;5029292;28;20319;-61
2022/05/13 13:36:11;;;;;;;2.67;1.13;;;;;;;;;;5032519;28;20299;-62
2022/05/13 13:39:02;;;;;;;1.67;1.07;;;;;;;;;;5028976;28;20235;-62
2022/05/13 13:41:59;;;;;;;2.77;1.30;;;;;;;;;;5029143;28;20304;-62
2022/05/13 13:45:05;;;;;;;1.57;1.23;;;;;;;;;;5028394;28;20288;-62
2022/05/13 13:47:55;;;;;;;1.17;1.07;;;;;;;;;;5034551;28;20779;-62
2022/05/13 13:50:46;;;;;;;1.73;1.23;;;;;;;;;;5032656;28;20319;-62
2022/05/13 13:53:41;;;;;;;1.40;1.23;;;;;;;;;;5030355;28;20324;-61
2022/05/13 13:56:31;;;;;;;1.67;1.17;;;;;;;;;;5035964;28;20267;-62
2022/05/13 13:59:24;;;;;;;1.80;1.20;;;;;;;;;;5029684;28;20752;-62
2022/05/13 14:02:30;;;;;;;1.43;1.33;;;;;;;;;;5035060;28;20303;-61
2022/05/13 14:05:21;;;;;;;2.13;1.23;;;;;;;;;;5029699;28;20735;-61
2022/05/13 14:08:12;;;;;;;2.73;1.10;;;;;;;;;;5033797;28;20209;-62
2022/05/13 14:11:04;;;;;;;1.47;1.10;;;;;;;;;;5029203;28;20554;-61
2022/05/13 14:13:53;;;;;;;1.53;1.30;;;;;;;;;;5029629;28;20222;-61
2022/05/13 14:16:49;;;;;;;1.20;1.00;;;;;;;;;;5031551;28;20205;-62
2022/05/13 14:19:42;;;;;;;1.73;1.00;;;;;;;;;;5030005;28;20343;-62
2022/05/13 14:22:29;;;;;;;0.77;0.77;;;;;;;;;;5034690;28;20682;-61
2022/05/13 14:25:16;;;;;;;1.97;1.27;;;;;;;;;;5029431;28;20252;-62
2022/05/13 14:28:07;;;;;;;1.63;1.13;;;;;;;;;;5031430;28;20333;-62
2022/05/13 14:30:59;;;;;;;1.10;0.83;;;;;;;;;;5030451;28;20696;-62
2022/05/13 14:33:51;;;;;;;0.93;0.90;;;;;;;;;;5032429;28;20718;-62
2022/05/13 14:36:42;;;;;;;1.00;0.90;;;;;;;;;;5029637;28;20224;-62
2022/05/13 14:39:49;;;;;;;1.37;1.27;;;;;;;;;;5030369;28;20733;-62
2022/05/13 14:42:40;;;;;;;1.63;1.10;;;;;;;;;;5033489;28;20232;-61
2022/05/13 14:45:33;;;;;;;1.60;1.07;;;;;;;;;;5028895;28;20286;-61
2022/05/13 14:48:32;;;;;;;1.13;1.03;;;;;;;;;;5029108;28;20623;-62
2022/05/13 14:51:20;;;;;;;0.90;0.80;;;;;;;;;;5008083;28;20698;-61
2022/05/13 14:54:13;;;;;;;1.77;1.00;;;;;;;;;;5009334;28;20377;-62
2022/05/13 14:57:03;;;;;;;1.37;1.03;;;;;;;;;;5008608;28;20756;-62
2022/05/13 14:59:56;;;;;;;1.10;1.00;;;;;;;;;;5009470;28;20296;-61
2022/05/13 15:02:56;;;;;;;1.07;1.00;;;;;;;;;;5008535;28;20220;-62
2022/05/13 15:05:44;;;;;;;1.43;1.20;;;;;;;;;;5009451;28;20248;-61
2022/05/13 15:08:50;;;;;;;0.93;0.93;;;;;;;;;;5012397;28;20216;-62
2022/05/13 15:11:39;;;;;;;1.43;1.20;;;;;;;;;;5012071;28;20213;-62
2022/05/13 15:14:27;;;;;;;1.20;0.93;;;;;;;;;;5006931;28;20268;-62
2022/05/13 15:17:16;;;;;;;1.33;0.93;;;;;;;;;;5007046;28;20208;-61
2022/05/13 15:20:03;;;;;;;1.67;1.33;;;;;;;;;;5012114;28;20248;-62
2022/05/13 15:22:50;;;;;;;1.73;1.17;;;;;;;;;;5013670;28;20215;-62
2022/05/13 15:25:42;;;;;;;1.70;1.00;;;;;;;;;;5006991;28;20805;-61
2022/05/13 15:28:31;;;;;;;1.60;1.07;;;;;;;;;;5007324;28;20205;-62
2022/05/13 15:31:18;;;;;;;0.93;0.93;;;;;;;;;;5010592;28;20304;-61
2022/05/13 15:34:05;;;;;;;0.83;0.83;;;;;;;;;;5010004;28;20374;-62
2022/05/13 15:36:52;;;;;;;0.90;0.90;;;;;;;;;;5011048;28;20209;-62
2022/05/13 15:39:39;;;;;;;1.07;1.03;;;;;;;;;;5021965;28;20309;-62
2022/05/13 15:42:26;;;;;;;1.43;0.80;;;;;;;;;;5021931;28;20222;-62
2022/05/13 15:45:15;;;;;;;1.10;1.00;;;;;;;;;;5011748;28;20295;-61
2022/05/13 15:48:05;;;;;;;0.97;0.87;;;;;;;;;;5014651;28;20728;-62
2022/05/13 15:53:56;;;;;;;1.10;1.00;;;;;;;;;;5033571;28;20247;-63
2022/05/13 15:56:43;;;;;;;1.10;1.00;;;;;;;;;;5035586;28;20266;-61
2022/05/13 15:59:30;;;;;;;0.97;0.97;;;;;;;;;;5033605;28;20248;-61
2022/05/13 16:02:19;;;;;;;3.20;1.00;;;;;;;;;;5032766;28;20215;-61
2022/05/13 16:05:07;;;;;;;0.77;0.77;;;;;;;;;;5031480;28;20282;-61
2022/05/13 16:07:55;;;;;;;1.37;1.00;;;;;;;;;;5029260;28;20211;-61
2022/05/13 16:10:43;;;;;;;1.30;1.20;;;;;;;;;;5036914;28;20310;-61
2022/05/13 16:13:34;;;;;;;0.80;0.80;;;;;;;;;;5035297;28;20239;-61
2022/05/13 16:16:25;;;;;;;1.60;0.97;;;;;;;;;;5032280;28;20260;-61
2022/05/13 16:19:17;;;;;;;1.33;0.90;;;;;;;;;;5037233;28;20271;-61
2022/05/13 16:22:09;;;;;;;0.73;0.73;;;;;;;;;;5034068;28;20215;-62
2022/05/13 16:24:58;;;;;;;0.93;0.73;;;;;;;;;;5033651;28;20256;-61
2022/05/13 16:27:49;;;;;;;0.87;0.70;;;;;;;;;;5032663;28;20239;-61
2022/05/13 16:30:36;;;;;;;1.07;0.97;;;;;;;;;;5031065;28;20210;-61
2022/05/13 16:33:23;;;;;;;0.77;0.77;;;;;;;;;;5032000;28;20325;-61
2022/05/13 16:36:11;;;;;;;0.90;0.90;;;;;;;;;;5031791;28;20241;-61
2022/05/13 16:38:58;;;;;;;0.73;0.73;;;;;;;;;;5032501;28;20210;-61
2022/05/13 16:41:47;;;;;;;1.60;0.93;;;;;;;;;;5032268;28;20301;-61
2022/05/13 16:44:33;;;;;;;2.07;0.80;;;;;;;;;;5032670;28;20211;-64
2022/05/13 16:47:20;;;;;;;0.80;0.80;;;;;;;;;;5029766;28;20661;-61
2022/05/13 16:50:11;;;;;;;1.23;0.90;;;;;;;;;;5032289;28;20238;-61
2022/05/13 16:53:01;;;;;;;1.20;0.90;;;;;;;;;;5036906;28;20332;-61
2022/05/13 16:55:50;;;;;;;1.17;0.83;;;;;;;;;;5034590;28;20391;-61
2022/05/13 16:58:36;;;;;;;0.80;0.80;;;;;;;;;;5029165;28;20293;-61
2022/05/13 17:01:23;;;;;;;1.43;0.90;;;;;;;;;;5033547;28;20375;-61
2022/05/13 17:04:12;;;;;;;0.80;0.80;;;;;;;;;;5029966;28;20694;-61
2022/05/13 17:06:59;;;;;;;1.00;0.90;;;;;;;;;;5032563;28;20581;-61
2022/05/13 17:16:16;;;;;;;1.30;0.80;;;;;;;;;;5030282;28;20242;-61
2022/05/13 17:19:20;;;;;;;0.57;0.57;;;;;;;;;;5031907;28;20229;-59
2022/05/13 17:22:08;;;;;;;0.83;0.83;;;;;;;;;;5031934;28;20258;-61
2022/05/13 17:24:57;;;;;;;1.70;0.77;;;;;;;;;;5032353;28;20205;-61
2022/05/13 17:27:48;;;;;;;0.90;0.90;;;;;;;;;;5030889;28;20240;-60
2022/05/13 17:30:35;;;;;;;1.03;0.80;;;;;;;;;;5030992;28;20611;-61
2022/05/13 17:33:22;;;;;;;0.70;0.70;;;;;;;;;;5041000;28;20240;-61
2022/05/13 17:36:10;;;;;;;2.60;0.73;;;;;;;;;;5032212;28;20283;-61
2022/05/13 17:38:59;;;;;;;0.87;0.87;;;;;;;;;;5032635;28;20300;-61
2022/05/13 17:41:48;;;;;;;2.00;0.80;;;;;;;;;;5028203;28;20299;-61
2022/05/13 17:44:35;;;;;;;0.93;0.70;;;;;;;;;;5035689;28;20216;-61